sensor_id;sensor_type;location;lat;lon;timestamp;P1;durP1;ratioP1;P2;durP2;ratioP2
11018;SDS011;5563;52.296;6.806;2022-12-29T00:01:57;2.35;;;2.22;;
11018;SDS011;5563;52.296;6.806;2022-12-29T00:04:30;2.90;;;2.60;;
11018;SDS011;5563;52.296;6.806;2022-12-29T00:06:57;3.03;;;2.55;;
11018;SDS011;5563;52.296;6.806;2022-12-29T00:09:30;3.22;;;2.70;;
11018;SDS011;5563;52.296;6.806;2022-12-29T00:12:04;2.45;;;2.33;;
11018;SDS011;5563;52.296;6.806;2022-12-29T00:14:38;2.72;;;2.40;;
11018;SDS011;5563;52.296;6.806;2022-12-29T00:17:23;2.53;;;2.33;;
11018;SDS011;5563;52.296;6.806;2022-12-29T00:19:57;2.63;;;2.45;;
11018;SDS011;5563;52.296;6.806;2022-12-29T00:22:49;3.00;;;2.28;;
11018;SDS011;5563;52.296;6.806;2022-12-29T00:26:14;2.70;;;2.50;;
11018;SDS011;5563;52.296;6.806;2022-12-29T00:29:07;2.28;;;2.15;;
11018;SDS011;5563;52.296;6.806;2022-12-29T00:31:59;2.53;;;2.33;;
11018;SDS011;5563;52.296;6.806;2022-12-29T00:34:51;3.08;;;2.50;;
11018;SDS011;5563;52.296;6.806;2022-12-29T00:37:49;2.47;;;2.28;;
11018;SDS011;5563;52.296;6.806;2022-12-29T00:40:43;2.65;;;2.45;;
11018;SDS011;5563;52.296;6.806;2022-12-29T00:43:35;2.78;;;2.30;;
11018;SDS011;5563;52.296;6.806;2022-12-29T00:46:27;2.45;;;2.25;;
11018;SDS011;5563;52.296;6.806;2022-12-29T00:49:00;3.03;;;2.40;;
11018;SDS011;5563;52.296;6.806;2022-12-29T00:51:52;2.53;;;2.30;;
11018;SDS011;5563;52.296;6.806;2022-12-29T00:54:27;2.85;;;1.95;;
11018;SDS011;5563;52.296;6.806;2022-12-29T00:57:00;2.10;;;2.00;;
11018;SDS011;5563;52.296;6.806;2022-12-29T00:59:35;2.45;;;2.28;;
11018;SDS011;5563;52.296;6.806;2022-12-29T01:02:02;3.00;;;2.58;;
11018;SDS011;5563;52.296;6.806;2022-12-29T01:04:36;1.88;;;1.77;;
11018;SDS011;5563;52.296;6.806;2022-12-29T01:07:03;2.42;;;2.17;;
11018;SDS011;5563;52.296;6.806;2022-12-29T01:09:37;2.13;;;1.83;;
11018;SDS011;5563;52.296;6.806;2022-12-29T01:12:22;1.95;;;1.85;;
11018;SDS011;5563;52.296;6.806;2022-12-29T01:15:14;1.98;;;1.88;;
11018;SDS011;5563;52.296;6.806;2022-12-29T01:17:41;2.00;;;1.90;;
11018;SDS011;5563;52.296;6.806;2022-12-29T01:20:15;2.50;;;2.30;;
11018;SDS011;5563;52.296;6.806;2022-12-29T01:22:43;2.03;;;1.92;;
11018;SDS011;5563;52.296;6.806;2022-12-29T01:25:10;1.80;;;1.70;;
11018;SDS011;5563;52.296;6.806;2022-12-29T01:27:44;1.73;;;1.63;;
11018;SDS011;5563;52.296;6.806;2022-12-29T01:30:18;3.30;;;1.90;;
11018;SDS011;5563;52.296;6.806;2022-12-29T01:32:52;1.95;;;1.70;;
11018;SDS011;5563;52.296;6.806;2022-12-29T01:35:18;1.73;;;1.60;;
11018;SDS011;5563;52.296;6.806;2022-12-29T01:37:52;2.60;;;1.55;;
11018;SDS011;5563;52.296;6.806;2022-12-29T01:40:19;1.58;;;1.48;;
11018;SDS011;5563;52.296;6.806;2022-12-29T01:42:53;1.75;;;1.25;;
11018;SDS011;5563;52.296;6.806;2022-12-29T01:45:20;1.80;;;1.48;;
11018;SDS011;5563;52.296;6.806;2022-12-29T01:47:59;1.45;;;1.23;;
11018;SDS011;5563;52.296;6.806;2022-12-29T01:50:38;1.48;;;1.15;;
11018;SDS011;5563;52.296;6.806;2022-12-29T01:53:35;1.30;;;1.20;;
11018;SDS011;5563;52.296;6.806;2022-12-29T01:56:04;1.17;;;1.00;;
11018;SDS011;5563;52.296;6.806;2022-12-29T01:58:41;1.02;;;0.93;;
11018;SDS011;5563;52.296;6.806;2022-12-29T02:01:12;1.20;;;1.10;;
11018;SDS011;5563;52.296;6.806;2022-12-29T02:03:47;1.20;;;1.10;;
11018;SDS011;5563;52.296;6.806;2022-12-29T02:06:23;1.80;;;1.00;;
11018;SDS011;5563;52.296;6.806;2022-12-29T02:08:53;2.17;;;1.30;;
11018;SDS011;5563;52.296;6.806;2022-12-29T02:11:28;1.98;;;0.98;;
11018;SDS011;5563;52.296;6.806;2022-12-29T02:13:56;2.25;;;1.10;;
11018;SDS011;5563;52.296;6.806;2022-12-29T02:16:33;1.33;;;0.90;;
11018;SDS011;5563;52.296;6.806;2022-12-29T02:24:47;1.20;;;1.20;;
11018;SDS011;5563;52.296;6.806;2022-12-29T02:30:42;1.95;;;1.40;;
11018;SDS011;5563;52.296;6.806;2022-12-29T02:33:43;1.55;;;1.42;;
11018;SDS011;5563;52.296;6.806;2022-12-29T02:39:26;1.85;;;1.75;;
11018;SDS011;5563;52.296;6.806;2022-12-29T02:42:03;1.35;;;1.25;;
11018;SDS011;5563;52.296;6.806;2022-12-29T02:44:53;1.85;;;1.75;;
11018;SDS011;5563;52.296;6.806;2022-12-29T02:50:12;2.50;;;1.77;;
11018;SDS011;5563;52.296;6.806;2022-12-29T02:52:55;1.83;;;1.73;;
11018;SDS011;5563;52.296;6.806;2022-12-29T02:55:32;1.90;;;1.80;;
11018;SDS011;5563;52.296;6.806;2022-12-29T03:04:03;2.75;;;1.50;;
11018;SDS011;5563;52.296;6.806;2022-12-29T03:13:01;2.60;;;1.92;;
11018;SDS011;5563;52.296;6.806;2022-12-29T03:15:40;1.63;;;1.40;;
11018;SDS011;5563;52.296;6.806;2022-12-29T03:18:39;2.90;;;1.67;;
11018;SDS011;5563;52.296;6.806;2022-12-29T03:21:31;2.97;;;1.63;;
11018;SDS011;5563;52.296;6.806;2022-12-29T03:24:38;2.22;;;1.45;;
11018;SDS011;5563;52.296;6.806;2022-12-29T03:27:24;1.65;;;1.52;;
11018;SDS011;5563;52.296;6.806;2022-12-29T03:30:03;1.70;;;1.30;;
11018;SDS011;5563;52.296;6.806;2022-12-29T03:32:52;1.73;;;1.38;;
11018;SDS011;5563;52.296;6.806;2022-12-29T03:35:29;2.65;;;1.40;;
11018;SDS011;5563;52.296;6.806;2022-12-29T03:38:17;2.10;;;1.50;;
11018;SDS011;5563;52.296;6.806;2022-12-29T03:40:51;1.95;;;1.33;;
11018;SDS011;5563;52.296;6.806;2022-12-29T03:43:28;1.30;;;1.20;;
11018;SDS011;5563;52.296;6.806;2022-12-29T03:45:56;3.33;;;1.42;;
11018;SDS011;5563;52.296;6.806;2022-12-29T03:48:35;2.55;;;1.38;;
11018;SDS011;5563;52.296;6.806;2022-12-29T03:51:09;2.05;;;1.30;;
11018;SDS011;5563;52.296;6.806;2022-12-29T03:53:44;2.25;;;1.20;;
11018;SDS011;5563;52.296;6.806;2022-12-29T03:56:10;1.83;;;1.10;;
11018;SDS011;5563;52.296;6.806;2022-12-29T03:58:44;2.65;;;0.98;;
11018;SDS011;5563;52.296;6.806;2022-12-29T04:01:17;1.67;;;1.10;;
11018;SDS011;5563;52.296;6.806;2022-12-29T04:03:51;3.78;;;1.30;;
11018;SDS011;5563;52.296;6.806;2022-12-29T04:06:19;2.67;;;1.48;;
11018;SDS011;5563;52.296;6.806;2022-12-29T04:08:52;2.65;;;1.35;;
11018;SDS011;5563;52.296;6.806;2022-12-29T04:11:25;2.30;;;1.05;;
11018;SDS011;5563;52.296;6.806;2022-12-29T04:13:58;2.25;;;1.00;;
11018;SDS011;5563;52.296;6.806;2022-12-29T04:16:31;1.27;;;0.85;;
11018;SDS011;5563;52.296;6.806;2022-12-29T04:19:07;2.17;;;1.05;;
11018;SDS011;5563;52.296;6.806;2022-12-29T04:21:41;2.22;;;1.40;;
11018;SDS011;5563;52.296;6.806;2022-12-29T04:24:21;2.95;;;1.17;;
11018;SDS011;5563;52.296;6.806;2022-12-29T04:26:55;2.05;;;1.23;;
11018;SDS011;5563;52.296;6.806;2022-12-29T04:29:29;2.38;;;1.20;;
11018;SDS011;5563;52.296;6.806;2022-12-29T04:31:56;2.45;;;1.30;;
11018;SDS011;5563;52.296;6.806;2022-12-29T04:34:30;2.55;;;1.10;;
11018;SDS011;5563;52.296;6.806;2022-12-29T04:36:56;2.83;;;1.08;;
11018;SDS011;5563;52.296;6.806;2022-12-29T04:39:30;2.13;;;1.10;;
11018;SDS011;5563;52.296;6.806;2022-12-29T04:42:03;2.78;;;1.25;;
11018;SDS011;5563;52.296;6.806;2022-12-29T04:44:31;2.08;;;1.00;;
11018;SDS011;5563;52.296;6.806;2022-12-29T04:47:10;2.20;;;1.00;;
11018;SDS011;5563;52.296;6.806;2022-12-29T04:49:43;3.17;;;1.15;;
11018;SDS011;5563;52.296;6.806;2022-12-29T04:52:10;1.70;;;0.90;;
11018;SDS011;5563;52.296;6.806;2022-12-29T04:54:44;1.40;;;0.95;;
11018;SDS011;5563;52.296;6.806;2022-12-29T04:57:11;1.38;;;1.05;;
11018;SDS011;5563;52.296;6.806;2022-12-29T04:59:45;1.25;;;1.10;;
11018;SDS011;5563;52.296;6.806;2022-12-29T05:02:12;2.70;;;1.05;;
11018;SDS011;5563;52.296;6.806;2022-12-29T05:04:39;2.10;;;1.10;;
11018;SDS011;5563;52.296;6.806;2022-12-29T05:07:13;2.40;;;1.17;;
11018;SDS011;5563;52.296;6.806;2022-12-29T05:09:40;1.70;;;1.10;;
11018;SDS011;5563;52.296;6.806;2022-12-29T05:12:14;3.22;;;1.10;;
11018;SDS011;5563;52.296;6.806;2022-12-29T05:14:43;1.67;;;1.17;;
11018;SDS011;5563;52.296;6.806;2022-12-29T05:17:16;2.28;;;1.17;;
11018;SDS011;5563;52.296;6.806;2022-12-29T05:19:43;1.73;;;1.08;;
11018;SDS011;5563;52.296;6.806;2022-12-29T05:22:17;1.20;;;1.10;;
11018;SDS011;5563;52.296;6.806;2022-12-29T05:24:52;3.28;;;1.20;;
11018;SDS011;5563;52.296;6.806;2022-12-29T05:27:32;2.47;;;1.30;;
11018;SDS011;5563;52.296;6.806;2022-12-29T05:29:59;3.22;;;1.20;;
11018;SDS011;5563;52.296;6.806;2022-12-29T05:32:33;2.72;;;1.15;;
11018;SDS011;5563;52.296;6.806;2022-12-29T05:35:00;2.67;;;1.50;;
11018;SDS011;5563;52.296;6.806;2022-12-29T05:37:27;3.30;;;1.40;;
11018;SDS011;5563;52.296;6.806;2022-12-29T05:40:01;1.20;;;1.10;;
11018;SDS011;5563;52.296;6.806;2022-12-29T05:42:29;2.67;;;1.52;;
11018;SDS011;5563;52.296;6.806;2022-12-29T05:45:03;1.88;;;1.00;;
11018;SDS011;5563;52.296;6.806;2022-12-29T05:47:33;3.03;;;1.15;;
11018;SDS011;5563;52.296;6.806;2022-12-29T05:50:07;2.55;;;1.13;;
11018;SDS011;5563;52.296;6.806;2022-12-29T05:52:35;2.50;;;1.25;;
11018;SDS011;5563;52.296;6.806;2022-12-29T05:55:08;2.95;;;1.10;;
11018;SDS011;5563;52.296;6.806;2022-12-29T05:57:35;2.78;;;1.10;;
11018;SDS011;5563;52.296;6.806;2022-12-29T06:00:09;3.85;;;1.33;;
11018;SDS011;5563;52.296;6.806;2022-12-29T06:02:44;3.88;;;1.27;;
11018;SDS011;5563;52.296;6.806;2022-12-29T06:05:12;3.13;;;1.20;;
11018;SDS011;5563;52.296;6.806;2022-12-29T06:07:45;3.78;;;1.38;;
11018;SDS011;5563;52.296;6.806;2022-12-29T06:10:12;1.48;;;1.17;;
11018;SDS011;5563;52.296;6.806;2022-12-29T06:12:45;2.35;;;1.05;;
11018;SDS011;5563;52.296;6.806;2022-12-29T06:15:13;4.43;;;1.20;;
11018;SDS011;5563;52.296;6.806;2022-12-29T06:17:47;5.80;;;1.25;;
11018;SDS011;5563;52.296;6.806;2022-12-29T06:20:14;3.63;;;1.40;;
11018;SDS011;5563;52.296;6.806;2022-12-29T06:22:47;4.10;;;1.25;;
11018;SDS011;5563;52.296;6.806;2022-12-29T06:25:21;3.08;;;1.33;;
11018;SDS011;5563;52.296;6.806;2022-12-29T06:27:55;3.65;;;1.20;;
11018;SDS011;5563;52.296;6.806;2022-12-29T06:30:28;3.63;;;1.10;;
11018;SDS011;5563;52.296;6.806;2022-12-29T06:33:01;3.58;;;1.48;;
11018;SDS011;5563;52.296;6.806;2022-12-29T06:35:28;3.47;;;1.33;;
11018;SDS011;5563;52.296;6.806;2022-12-29T06:38:02;3.17;;;1.15;;
11018;SDS011;5563;52.296;6.806;2022-12-29T06:40:35;3.67;;;1.40;;
11018;SDS011;5563;52.296;6.806;2022-12-29T06:43:11;3.42;;;1.30;;
11018;SDS011;5563;52.296;6.806;2022-12-29T06:45:45;2.00;;;1.33;;
11018;SDS011;5563;52.296;6.806;2022-12-29T06:48:12;2.67;;;1.30;;
11018;SDS011;5563;52.296;6.806;2022-12-29T06:50:45;3.03;;;1.50;;
11018;SDS011;5563;52.296;6.806;2022-12-29T06:53:12;4.00;;;1.38;;
11018;SDS011;5563;52.296;6.806;2022-12-29T06:55:45;2.88;;;1.30;;
11018;SDS011;5563;52.296;6.806;2022-12-29T06:58:21;3.72;;;2.13;;
11018;SDS011;5563;52.296;6.806;2022-12-29T07:00:54;3.60;;;1.50;;
11018;SDS011;5563;52.296;6.806;2022-12-29T07:03:21;4.18;;;1.50;;
11018;SDS011;5563;52.296;6.806;2022-12-29T07:05:55;4.63;;;1.85;;
11018;SDS011;5563;52.296;6.806;2022-12-29T07:08:31;4.93;;;1.60;;
11018;SDS011;5563;52.296;6.806;2022-12-29T07:11:04;5.43;;;1.60;;
11018;SDS011;5563;52.296;6.806;2022-12-29T07:13:32;3.83;;;1.30;;
11018;SDS011;5563;52.296;6.806;2022-12-29T07:16:06;5.82;;;1.60;;
11018;SDS011;5563;52.296;6.806;2022-12-29T07:18:42;7.18;;;2.00;;
11018;SDS011;5563;52.296;6.806;2022-12-29T07:21:16;4.55;;;1.50;;
11018;SDS011;5563;52.296;6.806;2022-12-29T07:23:44;7.55;;;1.65;;
11018;SDS011;5563;52.296;6.806;2022-12-29T07:26:17;5.45;;;1.40;;
11018;SDS011;5563;52.296;6.806;2022-12-29T07:28:59;5.07;;;2.20;;
11018;SDS011;5563;52.296;6.806;2022-12-29T07:31:34;5.13;;;1.55;;
11018;SDS011;5563;52.296;6.806;2022-12-29T07:34:01;3.90;;;1.55;;
11018;SDS011;5563;52.296;6.806;2022-12-29T07:36:28;3.58;;;1.25;;
11018;SDS011;5563;52.296;6.806;2022-12-29T07:39:02;3.63;;;1.30;;
11018;SDS011;5563;52.296;6.806;2022-12-29T07:41:29;4.63;;;1.15;;
11018;SDS011;5563;52.296;6.806;2022-12-29T07:44:03;5.40;;;1.30;;
11018;SDS011;5563;52.296;6.806;2022-12-29T07:46:30;3.80;;;1.30;;
11018;SDS011;5563;52.296;6.806;2022-12-29T07:49:22;5.13;;;2.33;;
11018;SDS011;5563;52.296;6.806;2022-12-29T07:51:56;5.90;;;1.67;;
11018;SDS011;5563;52.296;6.806;2022-12-29T07:54:30;5.03;;;1.52;;
11018;SDS011;5563;52.296;6.806;2022-12-29T07:56:58;4.07;;;1.60;;
11018;SDS011;5563;52.296;6.806;2022-12-29T07:59:33;4.97;;;1.27;;
11018;SDS011;5563;52.296;6.806;2022-12-29T08:02:09;5.03;;;1.50;;
11018;SDS011;5563;52.296;6.806;2022-12-29T08:04:44;4.75;;;1.27;;
11018;SDS011;5563;52.296;6.806;2022-12-29T08:07:11;4.78;;;1.38;;
11018;SDS011;5563;52.296;6.806;2022-12-29T08:09:38;5.13;;;1.48;;
11018;SDS011;5563;52.296;6.806;2022-12-29T08:12:11;7.40;;;1.45;;
11018;SDS011;5563;52.296;6.806;2022-12-29T08:14:44;4.43;;;1.60;;
11018;SDS011;5563;52.296;6.806;2022-12-29T08:17:18;4.60;;;1.50;;
11018;SDS011;5563;52.296;6.806;2022-12-29T08:19:45;4.53;;;1.60;;
11018;SDS011;5563;52.296;6.806;2022-12-29T08:22:18;6.95;;;1.50;;
11018;SDS011;5563;52.296;6.806;2022-12-29T08:24:52;5.57;;;1.50;;
11018;SDS011;5563;52.296;6.806;2022-12-29T08:27:25;5.15;;;1.65;;
11018;SDS011;5563;52.296;6.806;2022-12-29T08:29:59;5.20;;;1.60;;
11018;SDS011;5563;52.296;6.806;2022-12-29T08:32:33;3.63;;;1.75;;
11018;SDS011;5563;52.296;6.806;2022-12-29T08:35:00;6.97;;;1.90;;
11018;SDS011;5563;52.296;6.806;2022-12-29T08:37:33;3.67;;;1.50;;
11018;SDS011;5563;52.296;6.806;2022-12-29T08:40:00;4.95;;;1.70;;
11018;SDS011;5563;52.296;6.806;2022-12-29T08:42:36;6.43;;;1.40;;
11018;SDS011;5563;52.296;6.806;2022-12-29T08:45:03;4.28;;;1.50;;
11018;SDS011;5563;52.296;6.806;2022-12-29T08:47:31;7.72;;;1.85;;
11018;SDS011;5563;52.296;6.806;2022-12-29T08:50:06;3.90;;;1.80;;
11018;SDS011;5563;52.296;6.806;2022-12-29T08:52:34;4.30;;;1.70;;
11018;SDS011;5563;52.296;6.806;2022-12-29T08:55:07;7.13;;;1.90;;
11018;SDS011;5563;52.296;6.806;2022-12-29T08:57:41;6.05;;;1.48;;
11018;SDS011;5563;52.296;6.806;2022-12-29T09:00:08;5.95;;;1.35;;
11018;SDS011;5563;52.296;6.806;2022-12-29T09:02:44;7.00;;;1.58;;
11018;SDS011;5563;52.296;6.806;2022-12-29T09:05:18;4.72;;;1.65;;
11018;SDS011;5563;52.296;6.806;2022-12-29T09:07:46;7.55;;;1.70;;
11018;SDS011;5563;52.296;6.806;2022-12-29T09:10:19;4.80;;;1.98;;
11018;SDS011;5563;52.296;6.806;2022-12-29T09:12:46;5.03;;;1.63;;
11018;SDS011;5563;52.296;6.806;2022-12-29T09:15:14;6.35;;;1.67;;
11018;SDS011;5563;52.296;6.806;2022-12-29T09:17:48;4.82;;;1.60;;
11018;SDS011;5563;52.296;6.806;2022-12-29T09:20:22;5.45;;;1.80;;
11018;SDS011;5563;52.296;6.806;2022-12-29T09:22:49;8.18;;;1.70;;
11018;SDS011;5563;52.296;6.806;2022-12-29T09:25:17;4.45;;;1.98;;
11018;SDS011;5563;52.296;6.806;2022-12-29T09:28:00;5.70;;;1.17;;
11018;SDS011;5563;52.296;6.806;2022-12-29T09:30:31;4.63;;;1.65;;
11018;SDS011;5563;52.296;6.806;2022-12-29T09:33:04;6.60;;;1.75;;
11018;SDS011;5563;52.296;6.806;2022-12-29T09:35:31;7.03;;;1.73;;
11018;SDS011;5563;52.296;6.806;2022-12-29T09:38:05;7.97;;;1.85;;
11018;SDS011;5563;52.296;6.806;2022-12-29T09:40:39;6.88;;;1.73;;
11018;SDS011;5563;52.296;6.806;2022-12-29T09:45:51;6.40;;;2.40;;
11018;SDS011;5563;52.296;6.806;2022-12-29T09:48:38;4.35;;;1.50;;
11018;SDS011;5563;52.296;6.806;2022-12-29T09:51:11;8.20;;;1.60;;
11018;SDS011;5563;52.296;6.806;2022-12-29T09:53:52;5.90;;;1.75;;
11018;SDS011;5563;52.296;6.806;2022-12-29T09:56:25;5.85;;;1.90;;
11018;SDS011;5563;52.296;6.806;2022-12-29T09:59:19;5.47;;;1.38;;
11018;SDS011;5563;52.296;6.806;2022-12-29T10:10:53;6.15;;;1.70;;
11018;SDS011;5563;52.296;6.806;2022-12-29T10:16:11;5.70;;;1.80;;
11018;SDS011;5563;52.296;6.806;2022-12-29T10:24:10;6.82;;;2.17;;
11018;SDS011;5563;52.296;6.806;2022-12-29T10:26:46;5.38;;;1.42;;
11018;SDS011;5563;52.296;6.806;2022-12-29T10:29:32;6.63;;;1.45;;
11018;SDS011;5563;52.296;6.806;2022-12-29T10:35:05;4.38;;;1.35;;
11018;SDS011;5563;52.296;6.806;2022-12-29T10:37:49;5.60;;;2.75;;
11018;SDS011;5563;52.296;6.806;2022-12-29T10:40:28;5.80;;;1.70;;
11018;SDS011;5563;52.296;6.806;2022-12-29T10:43:07;5.40;;;1.95;;
11018;SDS011;5563;52.296;6.806;2022-12-29T10:46:01;10.05;;;1.80;;
11018;SDS011;5563;52.296;6.806;2022-12-29T10:48:32;3.25;;;1.50;;
11018;SDS011;5563;52.296;6.806;2022-12-29T10:51:07;5.05;;;1.48;;
11018;SDS011;5563;52.296;6.806;2022-12-29T10:53:49;3.53;;;1.40;;
11018;SDS011;5563;52.296;6.806;2022-12-29T10:56:27;3.95;;;1.30;;
11018;SDS011;5563;52.296;6.806;2022-12-29T10:59:14;4.30;;;1.42;;
11018;SDS011;5563;52.296;6.806;2022-12-29T11:01:56;5.55;;;1.27;;
11018;SDS011;5563;52.296;6.806;2022-12-29T11:07:07;3.88;;;1.20;;
11018;SDS011;5563;52.296;6.806;2022-12-29T11:09:45;4.47;;;1.27;;
11018;SDS011;5563;52.296;6.806;2022-12-29T11:17:45;5.45;;;1.25;;
11018;SDS011;5563;52.296;6.806;2022-12-29T11:23:01;2.97;;;1.17;;
11018;SDS011;5563;52.296;6.806;2022-12-29T11:25:36;2.47;;;1.13;;
11018;SDS011;5563;52.296;6.806;2022-12-29T11:28:16;3.53;;;1.25;;
11018;SDS011;5563;52.296;6.806;2022-12-29T11:30:43;6.72;;;1.63;;
11018;SDS011;5563;52.296;6.806;2022-12-29T11:33:16;3.47;;;1.17;;
11018;SDS011;5563;52.296;6.806;2022-12-29T11:35:43;5.80;;;1.58;;
11018;SDS011;5563;52.296;6.806;2022-12-29T11:38:18;4.10;;;1.30;;
11018;SDS011;5563;52.296;6.806;2022-12-29T11:40:54;4.43;;;1.40;;
11018;SDS011;5563;52.296;6.806;2022-12-29T11:46:14;4.28;;;1.45;;
11018;SDS011;5563;52.296;6.806;2022-12-29T11:48:49;4.90;;;1.50;;
11018;SDS011;5563;52.296;6.806;2022-12-29T11:51:23;4.88;;;1.50;;
11018;SDS011;5563;52.296;6.806;2022-12-29T11:54:02;3.83;;;1.33;;
11018;SDS011;5563;52.296;6.806;2022-12-29T11:56:41;5.43;;;2.30;;
11018;SDS011;5563;52.296;6.806;2022-12-29T12:05:09;4.80;;;1.67;;
11018;SDS011;5563;52.296;6.806;2022-12-29T12:07:45;6.63;;;1.98;;
11018;SDS011;5563;52.296;6.806;2022-12-29T12:10:19;4.40;;;1.60;;
11018;SDS011;5563;52.296;6.806;2022-12-29T12:12:59;5.90;;;1.73;;
11018;SDS011;5563;52.296;6.806;2022-12-29T12:15:35;7.93;;;2.72;;
11018;SDS011;5563;52.296;6.806;2022-12-29T12:29:28;5.53;;;1.88;;
11018;SDS011;5563;52.296;6.806;2022-12-29T12:32:05;3.22;;;1.52;;
11018;SDS011;5563;52.296;6.806;2022-12-29T12:34:46;6.72;;;2.25;;
11018;SDS011;5563;52.296;6.806;2022-12-29T12:40:43;6.82;;;2.25;;
11018;SDS011;5563;52.296;6.806;2022-12-29T12:43:49;3.33;;;1.80;;
11018;SDS011;5563;52.296;6.806;2022-12-29T12:52:04;4.05;;;2.53;;
11018;SDS011;5563;52.296;6.806;2022-12-29T13:00:27;5.97;;;2.80;;
11018;SDS011;5563;52.296;6.806;2022-12-29T13:06:38;4.30;;;2.55;;
11018;SDS011;5563;52.296;6.806;2022-12-29T13:20:23;5.03;;;2.75;;
11018;SDS011;5563;52.296;6.806;2022-12-29T13:29:06;10.25;;;2.60;;
11018;SDS011;5563;52.296;6.806;2022-12-29T13:32:09;7.35;;;3.05;;
11018;SDS011;5563;52.296;6.806;2022-12-29T13:37:34;6.28;;;2.85;;
11018;SDS011;5563;52.296;6.806;2022-12-29T13:40:24;8.68;;;3.53;;
11018;SDS011;5563;52.296;6.806;2022-12-29T13:42:52;6.57;;;3.03;;
11018;SDS011;5563;52.296;6.806;2022-12-29T13:45:28;8.77;;;3.63;;
11018;SDS011;5563;52.296;6.806;2022-12-29T13:47:59;7.40;;;3.35;;
11018;SDS011;5563;52.296;6.806;2022-12-29T13:50:35;7.85;;;3.28;;
11018;SDS011;5563;52.296;6.806;2022-12-29T13:58:54;10.13;;;4.78;;
11018;SDS011;5563;52.296;6.806;2022-12-29T14:02:21;9.60;;;3.88;;
11018;SDS011;5563;52.296;6.806;2022-12-29T14:04:34;8.15;;;3.88;;
11018;SDS011;5563;52.296;6.806;2022-12-29T14:07:15;9.35;;;3.45;;
11018;SDS011;5563;52.296;6.806;2022-12-29T14:09:47;7.93;;;3.70;;
11018;SDS011;5563;52.296;6.806;2022-12-29T14:12:28;7.90;;;3.63;;
11018;SDS011;5563;52.296;6.806;2022-12-29T14:18:02;6.63;;;3.50;;
11018;SDS011;5563;52.296;6.806;2022-12-29T14:20:36;8.18;;;3.15;;
11018;SDS011;5563;52.296;6.806;2022-12-29T14:25:57;8.85;;;3.60;;
11018;SDS011;5563;52.296;6.806;2022-12-29T14:28:40;7.97;;;3.45;;
11018;SDS011;5563;52.296;6.806;2022-12-29T14:36:52;6.30;;;3.03;;
11018;SDS011;5563;52.296;6.806;2022-12-29T14:39:37;11.13;;;2.78;;
11018;SDS011;5563;52.296;6.806;2022-12-29T14:47:43;9.05;;;3.25;;
11018;SDS011;5563;52.296;6.806;2022-12-29T14:52:57;8.00;;;3.00;;
11018;SDS011;5563;52.296;6.806;2022-12-29T14:55:36;5.75;;;2.70;;
11018;SDS011;5563;52.296;6.806;2022-12-29T14:58:26;10.45;;;3.55;;
11018;SDS011;5563;52.296;6.806;2022-12-29T15:01:00;6.00;;;2.55;;
11018;SDS011;5563;52.296;6.806;2022-12-29T15:03:29;11.15;;;3.60;;
11018;SDS011;5563;52.296;6.806;2022-12-29T15:06:09;6.65;;;2.97;;
11018;SDS011;5563;52.296;6.806;2022-12-29T15:08:42;5.30;;;2.17;;
11018;SDS011;5563;52.296;6.806;2022-12-29T15:11:24;8.65;;;2.80;;
11018;SDS011;5563;52.296;6.806;2022-12-29T15:19:59;7.03;;;2.25;;
11018;SDS011;5563;52.296;6.806;2022-12-29T15:22:56;7.70;;;2.60;;
11018;SDS011;5563;52.296;6.806;2022-12-29T15:25:34;8.90;;;2.67;;
11018;SDS011;5563;52.296;6.806;2022-12-29T15:28:10;6.30;;;2.47;;
11018;SDS011;5563;52.296;6.806;2022-12-29T15:30:55;9.98;;;2.90;;
11018;SDS011;5563;52.296;6.806;2022-12-29T15:33:37;3.58;;;2.13;;
11018;SDS011;5563;52.296;6.806;2022-12-29T15:36:10;5.30;;;2.20;;
11018;SDS011;5563;52.296;6.806;2022-12-29T15:38:49;6.57;;;2.67;;
11018;SDS011;5563;52.296;6.806;2022-12-29T15:44:08;5.53;;;2.78;;
11018;SDS011;5563;52.296;6.806;2022-12-29T15:46:47;5.32;;;2.20;;
11018;SDS011;5563;52.296;6.806;2022-12-29T15:49:20;4.28;;;2.55;;
11018;SDS011;5563;52.296;6.806;2022-12-29T15:51:57;3.75;;;2.72;;
11018;SDS011;5563;52.296;6.806;2022-12-29T15:54:24;3.63;;;1.65;;
11018;SDS011;5563;52.296;6.806;2022-12-29T15:57:03;6.38;;;1.70;;
11018;SDS011;5563;52.296;6.806;2022-12-29T15:59:33;4.35;;;1.70;;
11018;SDS011;5563;52.296;6.806;2022-12-29T16:02:07;3.42;;;1.77;;
11018;SDS011;5563;52.296;6.806;2022-12-29T16:04:38;5.15;;;1.88;;
11018;SDS011;5563;52.296;6.806;2022-12-29T16:07:32;3.35;;;1.83;;
11018;SDS011;5563;52.296;6.806;2022-12-29T16:10:28;3.97;;;1.90;;
11018;SDS011;5563;52.296;6.806;2022-12-29T16:15:46;5.95;;;1.77;;
11018;SDS011;5563;52.296;6.806;2022-12-29T16:18:25;2.95;;;1.70;;
11018;SDS011;5563;52.296;6.806;2022-12-29T16:20:55;3.80;;;2.00;;
11018;SDS011;5563;52.296;6.806;2022-12-29T16:23:36;5.25;;;1.63;;
11018;SDS011;5563;52.296;6.806;2022-12-29T16:26:14;4.32;;;2.08;;
11018;SDS011;5563;52.296;6.806;2022-12-29T16:28:51;5.28;;;1.95;;
11018;SDS011;5563;52.296;6.806;2022-12-29T16:34:50;4.57;;;2.17;;
11018;SDS011;5563;52.296;6.806;2022-12-29T16:39:53;5.45;;;2.88;;
11018;SDS011;5563;52.296;6.806;2022-12-29T16:42:33;7.32;;;2.83;;
11018;SDS011;5563;52.296;6.806;2022-12-29T16:50:40;8.15;;;2.70;;
11018;SDS011;5563;52.296;6.806;2022-12-29T16:53:20;5.43;;;3.38;;
11018;SDS011;5563;52.296;6.806;2022-12-29T16:56:08;7.85;;;3.17;;
11018;SDS011;5563;52.296;6.806;2022-12-29T16:58:49;6.20;;;2.10;;
11018;SDS011;5563;52.296;6.806;2022-12-29T17:01:24;7.13;;;2.40;;
11018;SDS011;5563;52.296;6.806;2022-12-29T17:03:58;7.20;;;2.20;;
11018;SDS011;5563;52.296;6.806;2022-12-29T17:06:30;5.38;;;2.10;;
11018;SDS011;5563;52.296;6.806;2022-12-29T17:09:17;6.80;;;2.10;;
11018;SDS011;5563;52.296;6.806;2022-12-29T17:11:46;3.85;;;2.28;;
11018;SDS011;5563;52.296;6.806;2022-12-29T17:14:49;5.93;;;2.00;;
11018;SDS011;5563;52.296;6.806;2022-12-29T17:20:23;6.15;;;2.45;;
11018;SDS011;5563;52.296;6.806;2022-12-29T17:22:51;6.15;;;2.33;;
11018;SDS011;5563;52.296;6.806;2022-12-29T17:25:32;4.05;;;2.38;;
11018;SDS011;5563;52.296;6.806;2022-12-29T17:28:23;7.28;;;2.47;;
11018;SDS011;5563;52.296;6.806;2022-12-29T17:30:53;6.95;;;2.58;;
11018;SDS011;5563;52.296;6.806;2022-12-29T17:33:36;4.80;;;2.40;;
11018;SDS011;5563;52.296;6.806;2022-12-29T17:36:11;4.70;;;2.40;;
11018;SDS011;5563;52.296;6.806;2022-12-29T17:38:38;6.97;;;2.72;;
11018;SDS011;5563;52.296;6.806;2022-12-29T17:41:12;5.60;;;2.80;;
11018;SDS011;5563;52.296;6.806;2022-12-29T17:43:46;7.03;;;2.80;;
11018;SDS011;5563;52.296;6.806;2022-12-29T17:46:19;5.65;;;2.58;;
11018;SDS011;5563;52.296;6.806;2022-12-29T17:48:46;4.68;;;2.25;;
11018;SDS011;5563;52.296;6.806;2022-12-29T17:51:19;4.22;;;2.15;;
11018;SDS011;5563;52.296;6.806;2022-12-29T17:53:47;4.20;;;1.73;;
11018;SDS011;5563;52.296;6.806;2022-12-29T17:56:15;6.00;;;2.10;;
11018;SDS011;5563;52.296;6.806;2022-12-29T17:58:48;3.65;;;1.85;;
11018;SDS011;5563;52.296;6.806;2022-12-29T18:01:15;6.35;;;2.20;;
11018;SDS011;5563;52.296;6.806;2022-12-29T18:04:00;2.88;;;1.48;;
11018;SDS011;5563;52.296;6.806;2022-12-29T18:06:34;5.35;;;1.40;;
11018;SDS011;5563;52.296;6.806;2022-12-29T18:09:07;5.35;;;2.10;;
11018;SDS011;5563;52.296;6.806;2022-12-29T18:11:39;5.35;;;1.77;;
11018;SDS011;5563;52.296;6.806;2022-12-29T18:14:15;4.40;;;1.80;;
11018;SDS011;5563;52.296;6.806;2022-12-29T18:16:42;5.03;;;2.08;;
11018;SDS011;5563;52.296;6.806;2022-12-29T18:19:15;5.00;;;1.73;;
11018;SDS011;5563;52.296;6.806;2022-12-29T18:21:42;4.63;;;1.90;;
11018;SDS011;5563;52.296;6.806;2022-12-29T18:24:15;3.53;;;1.60;;
11018;SDS011;5563;52.296;6.806;2022-12-29T18:26:48;4.18;;;1.70;;
11018;SDS011;5563;52.296;6.806;2022-12-29T18:29:22;3.13;;;1.67;;
11018;SDS011;5563;52.296;6.806;2022-12-29T18:31:55;7.95;;;3.13;;
11018;SDS011;5563;52.296;6.806;2022-12-29T18:34:28;5.93;;;4.50;;
11018;SDS011;5563;52.296;6.806;2022-12-29T18:37:01;4.80;;;2.35;;
11018;SDS011;5563;52.296;6.806;2022-12-29T18:39:35;4.97;;;1.85;;
11018;SDS011;5563;52.296;6.806;2022-12-29T18:42:03;3.88;;;1.73;;